POZ weather

Poznań-Ławica Airport
Poznań, Greater Poland, Poland

Public forecast

Using degrees Celsius for public forecast. Weather courtesy of forecast.io.

METAR (pilot weather report)

Retrieved 2019/03/26 16:30 UTC (9 minutes ago):

EPPO 261630Z 29013KT 9999 SCT031CB 05/01 Q1019

TAF (pilot weather forecast)

Retrieved 2019/03/26 12:36 UTC (4 hours ago):

TAF EPPO 261130Z 2612/2712 27019KT 9999 BKN020 TEMPO 2612/2618 28020G35KT SHRA BKN018CB BECMG 2618/2620 28005KT BECMG 2701/2703 3000 BR TEMPO 2703/2706 1200 BR BECMG 2706/2709 7000